Time;durP1;ratioP1;P1;durP2;ratioP2;P2;SDS_P1;SDS_P2;PMS_P1;PMS_P2;Temp;Humidity;BMP_temperature;BMP_pressure;BME280_temperature;BME280_humidity;BME280_pressure;Samples;Min_cycle;Max_cycle;Signal;HPM_P1;HPM_P2
2022/03/24 00:01:22;;;;;;;22.40;16.80;;;0.80;96.30;;;;;;4976645;28;20220;-78
2022/03/24 00:03:47;;;;;;;22.20;17.57;;;0.60;96.30;;;;;;4976558;28;20633;-79
2022/03/24 00:06:13;;;;;;;24.07;16.13;;;0.50;96.30;;;;;;4990966;28;20181;-79
2022/03/24 00:08:39;;;;;;;20.37;15.90;;;0.50;96.30;;;;;;4996039;28;20522;-78
2022/03/24 00:11:04;;;;;;;22.87;16.03;;;0.60;96.30;;;;;;4995786;28;20474;-78
2022/03/24 00:13:30;;;;;;;25.13;16.27;;;0.60;96.30;;;;;;5008516;28;20556;-78
2022/03/24 00:15:56;;;;;;;23.93;17.47;;;0.80;96.30;;;;;;4976421;28;20173;-78
2022/03/24 00:18:21;;;;;;;24.67;16.33;;;0.80;96.30;;;;;;4976167;28;20174;-78
2022/03/24 00:20:47;;;;;;;35.63;16.67;;;0.80;96.30;;;;;;4976229;28;20201;-80
2022/03/24 00:23:12;;;;;;;24.47;16.87;;;0.70;96.30;;;;;;4993819;28;20951;-78
2022/03/24 00:25:38;;;;;;;22.70;15.70;;;0.60;96.30;;;;;;4976253;28;20649;-78
2022/03/24 00:28:06;;;;;;;25.20;16.00;;;0.50;96.30;;;;;;4976019;28;20244;-79
2022/03/24 00:30:31;;;;;;;21.77;16.00;;;0.50;96.30;;;;;;4976059;28;20177;-79
2022/03/24 00:32:57;;;;;;;23.47;15.03;;;0.40;96.30;;;;;;4975387;28;20424;-78
2022/03/24 00:35:24;;;;;;;24.97;16.13;;;0.40;96.30;;;;;;4976030;28;20672;-79
2022/03/24 00:37:50;;;;;;;23.87;16.70;;;0.40;96.30;;;;;;4975938;28;20182;-79
2022/03/24 00:40:17;;;;;;;20.70;15.33;;;0.30;96.30;;;;;;4993364;28;20412;-78
2022/03/24 00:42:43;;;;;;;28.43;16.47;;;0.30;96.30;;;;;;4996991;28;20427;-77
2022/03/24 00:45:12;;;;;;;26.40;16.83;;;0.30;96.30;;;;;;4995384;28;20435;-78
2022/03/24 00:47:47;;;;;;;25.00;16.37;;;0.20;96.30;;;;;;4995011;28;20426;-79
2022/03/24 00:50:13;;;;;;;24.30;15.90;;;0.20;96.30;;;;;;4995160;28;20412;-78
2022/03/24 00:52:42;;;;;;;24.70;16.33;;;0.20;96.30;;;;;;4995000;28;20471;-78
2022/03/24 00:55:13;;;;;;;22.07;15.67;;;0.20;96.30;;;;;;4995233;28;20412;-78
2022/03/24 00:57:42;;;;;;;21.30;14.93;;;0.20;96.30;;;;;;4994942;28;20416;-81
2022/03/24 05:01:02;;;;;;;29.60;18.77;;;-1.50;96.30;;;;;;5719110;23;20512;-78
2022/03/24 05:03:28;;;;;;;28.50;19.50;;;-1.50;96.30;;;;;;4993628;28;20483;-78
2022/03/24 05:05:54;;;;;;;27.97;18.90;;;-1.60;96.30;;;;;;4992154;28;20642;-80
2022/03/24 05:08:20;;;;;;;26.80;19.63;;;-1.50;96.30;;;;;;4991722;28;20409;-78
2022/03/24 05:10:45;;;;;;;31.67;19.17;;;-1.50;96.30;;;;;;4992135;28;20204;-78
2022/03/24 05:13:11;;;;;;;30.00;19.30;;;-1.40;96.30;;;;;;4993217;28;20217;-79
2022/03/24 05:15:38;;;;;;;25.97;19.40;;;-1.40;96.30;;;;;;5001723;28;20188;-79
2022/03/24 05:18:04;;;;;;;29.80;19.37;;;-1.30;96.30;;;;;;5000463;28;20747;-80
2022/03/24 05:37:47;;;;;;;27.93;18.83;;;-0.80;96.30;;;;;;5419046;23;20498;-79
2022/03/24 05:40:13;;;;;;;28.80;21.37;;;-0.70;96.30;;;;;;4999856;28;20427;-79
2022/03/24 05:42:38;;;;;;;28.60;22.00;;;-0.10;96.30;;;;;;5019653;28;20169;-80
2022/03/24 05:45:04;;;;;;;32.00;22.97;;;0.90;96.30;;;;;;4998494;28;20555;-79
2022/03/24 05:47:30;;;;;;;27.67;20.63;;;2.10;96.30;;;;;;4999751;28;20185;-81
2022/03/24 05:49:56;;;;;;;26.53;18.17;;;3.00;96.30;;;;;;5019553;28;20177;-79
2022/03/24 05:52:21;;;;;;;23.00;19.03;;;4.00;96.30;;;;;;4997777;28;20248;-80
2022/03/24 05:54:47;;;;;;;32.20;19.03;;;4.90;96.30;;;;;;5002109;28;20196;-80
2022/03/24 05:57:13;;;;;;;24.60;17.60;;;5.80;96.30;;;;;;5021146;28;20189;-80
2022/03/24 05:59:38;;;;;;;23.23;16.83;;;6.60;96.30;;;;;;5017075;28;20636;-79
2022/03/24 06:02:05;;;;;;;28.07;19.10;;;7.20;96.30;;;;;;5016785;28;20560;-80
2022/03/24 06:04:31;;;;;;;24.90;19.00;;;7.70;96.30;;;;;;4997937;28;20640;-79
2022/03/24 06:06:58;;;;;;;24.67;18.07;;;7.50;96.30;;;;;;5012691;28;20489;-79
2022/03/24 06:09:23;;;;;;;23.23;17.80;;;8.30;96.30;;;;;;4996864;28;20496;-78
2022/03/24 06:11:49;;;;;;;22.60;17.80;;;8.90;94.50;;;;;;5016976;28;20459;-79
2022/03/24 06:14:15;;;;;;;20.00;16.83;;;9.10;91.70;;;;;;5016295;28;20247;-79
2022/03/24 06:16:41;;;;;;;22.47;17.83;;;9.40;91.90;;;;;;5016100;28;20544;-79
2022/03/24 06:19:11;;;;;;;23.63;17.17;;;10.20;89.50;;;;;;5016752;28;20170;-79
2022/03/24 06:21:38;;;;;;;21.97;17.43;;;11.10;85.60;;;;;;5016319;28;20440;-79
2022/03/24 06:24:04;;;;;;;18.90;16.90;;;11.60;84.50;;;;;;5015402;28;20412;-79
2022/03/24 06:26:30;;;;;;;22.43;16.70;;;11.80;82.30;;;;;;5015289;28;20419;-78
2022/03/24 06:28:56;;;;;;;19.40;16.90;;;12.00;81.20;;;;;;5006973;28;20431;-78
2022/03/24 06:31:21;;;;;;;23.87;18.17;;;12.60;80.10;;;;;;5007404;28;20312;-78
2022/03/24 06:33:48;;;;;;;20.00;17.83;;;13.10;77.90;;;;;;5015851;28;20228;-78
2022/03/24 06:36:13;;;;;;;34.53;24.80;;;13.00;78.50;;;;;;4998438;28;20571;-77
2022/03/24 06:38:39;;;;;;;25.00;19.93;;;13.50;75.90;;;;;;5016798;28;20439;-79
2022/03/24 06:41:08;;;;;;;43.70;32.00;;;13.20;76.70;;;;;;5018520;28;20680;-78
2022/03/24 06:43:36;;;;;;;113.43;77.23;;;13.30;77.30;;;;;;5013233;28;20645;-79
2022/03/24 06:46:03;;;;;;;38.20;32.50;;;13.50;76.50;;;;;;5013245;28;20477;-78
2022/03/24 06:48:29;;;;;;;26.50;20.73;;;12.90;77.10;;;;;;5014447;28;20900;-78
2022/03/24 06:50:55;;;;;;;20.03;17.93;;;13.00;77.90;;;;;;5014802;28;20459;-78
2022/03/24 06:53:20;;;;;;;18.67;16.67;;;12.80;77.90;;;;;;5014448;28;20282;-78
2022/03/24 06:55:46;;;;;;;19.40;16.30;;;12.80;77.90;;;;;;5014803;28;20173;-78
2022/03/24 06:58:11;;;;;;;18.77;15.90;;;12.80;78.90;;;;;;5014089;28;20188;-77
2022/03/24 07:00:39;;;;;;;21.00;17.17;;;13.10;77.30;;;;;;5014673;28;20189;-78
2022/03/24 07:03:05;;;;;;;22.90;16.53;;;13.40;77.50;;;;;;4997019;28;20185;-78
2022/03/24 07:05:30;;;;;;;24.40;17.50;;;14.10;75.30;;;;;;5014569;28;20449;-79
2022/03/24 07:07:56;;;;;;;22.10;18.13;;;13.80;74.90;;;;;;5014111;28;20212;-79
2022/03/24 07:10:21;;;;;;;21.20;17.13;;;13.10;76.30;;;;;;5014063;28;20184;-80
2022/03/24 07:12:49;;;;;;;27.17;20.27;;;14.10;74.80;;;;;;5011311;28;20770;-79
2022/03/24 07:15:15;;;;;;;22.33;17.87;;;14.00;75.30;;;;;;5014172;28;20589;-80
2022/03/24 07:17:40;;;;;;;20.63;18.13;;;14.70;73.60;;;;;;4995890;28;20423;-79
2022/03/24 07:20:07;;;;;;;22.33;18.30;;;15.00;72.60;;;;;;5018614;28;20251;-79
2022/03/24 07:22:34;;;;;;;20.33;18.03;;;15.00;71.50;;;;;;4999787;28;20205;-79
2022/03/24 07:25:01;;;;;;;19.73;17.73;;;15.10;72.30;;;;;;5010304;28;20530;-80
2022/03/24 07:27:26;;;;;;;19.27;17.33;;;15.20;72.60;;;;;;5022409;28;20465;-80
2022/03/24 07:29:52;;;;;;;21.90;18.33;;;15.70;71.20;;;;;;5030435;28;20415;-80
2022/03/24 07:32:18;;;;;;;20.77;18.20;;;15.60;71.70;;;;;;5012492;28;20287;-81
2022/03/24 07:34:44;;;;;;;20.00;18.00;;;16.00;70.70;;;;;;5003312;28;20169;-81
2022/03/24 07:37:09;;;;;;;20.00;17.80;;;16.40;68.60;;;;;;5014048;28;20452;-80
2022/03/24 07:39:35;;;;;;;20.53;17.77;;;17.00;68.60;;;;;;5012756;28;20172;-81
2022/03/24 07:42:01;;;;;;;18.10;16.20;;;16.90;66.80;;;;;;4997710;28;20635;-80
2022/03/24 07:44:26;;;;;;;20.50;18.30;;;16.70;69.20;;;;;;5018885;28;20250;-82
2022/03/24 07:46:52;;;;;;;22.40;18.70;;;17.20;66.50;;;;;;5015938;28;20179;-82
2022/03/24 07:49:17;;;;;;;21.53;17.77;;;17.00;67.60;;;;;;5012969;28;20184;-80
2022/03/24 07:51:43;;;;;;;21.07;17.83;;;17.30;66.90;;;;;;4995811;28;20238;-80
2022/03/24 07:54:10;;;;;;;20.60;18.50;;;17.30;68.00;;;;;;5011142;28;20172;-81
2022/03/24 07:56:37;;;;;;;19.80;17.87;;;17.00;70.40;;;;;;5021683;28;20794;-81
2022/03/24 07:59:05;;;;;;;21.20;19.00;;;17.00;68.90;;;;;;4999029;28;20419;-81
2022/03/24 08:01:36;;;;;;;23.30;20.33;;;17.50;68.70;;;;;;5012118;28;20458;-80
2022/03/24 08:04:03;;;;;;;25.43;20.80;;;17.40;67.30;;;;;;5015949;28;20423;-81
2022/03/24 08:06:30;;;;;;;30.43;20.50;;;17.80;66.00;;;;;;5013326;28;20426;-81
2022/03/24 08:08:56;;;;;;;24.20;21.80;;;17.90;66.20;;;;;;4984773;28;20411;-80
2022/03/24 08:11:22;;;;;;;25.30;22.70;;;18.40;65.30;;;;;;4994517;28;20885;-80
2022/03/24 08:13:52;;;;;;;24.80;21.47;;;16.80;66.20;;;;;;5014385;28;20964;-81
2022/03/24 08:16:17;;;;;;;24.23;21.00;;;16.40;67.00;;;;;;5014468;28;20260;-80
2022/03/24 08:18:43;;;;;;;24.30;21.10;;;16.70;67.40;;;;;;4990165;28;20565;-81
2022/03/24 08:21:08;;;;;;;24.57;22.10;;;17.00;67.80;;;;;;5013946;28;20204;-80
2022/03/24 08:23:34;;;;;;;29.17;22.23;;;15.70;69.80;;;;;;5012499;28;20192;-79
2022/03/24 08:25:59;;;;;;;24.63;22.03;;;14.90;73.40;;;;;;5012495;28;20196;-80
2022/03/24 08:28:25;;;;;;;27.37;22.93;;;15.00;73.10;;;;;;4995699;28;20280;-80
2022/03/24 08:30:51;;;;;;;24.77;21.17;;;14.70;74.30;;;;;;5023959;28;20199;-80
2022/03/24 08:33:16;;;;;;;24.40;21.20;;;14.50;75.90;;;;;;5033213;28;20173;-81
2022/03/24 08:35:42;;;;;;;27.37;21.57;;;14.30;76.40;;;;;;5019591;28;20248;-81
2022/03/24 08:38:09;;;;;;;25.33;21.37;;;15.30;74.80;;;;;;5028625;28;20192;-81
2022/03/24 08:40:35;;;;;;;28.43;23.97;;;15.60;72.40;;;;;;5026950;28;20708;-80
2022/03/24 08:43:03;;;;;;;30.87;23.43;;;15.60;72.70;;;;;;5013118;28;20415;-81
2022/03/24 08:45:29;;;;;;;28.10;23.90;;;16.60;69.00;;;;;;5013822;28;20772;-80
2022/03/24 08:47:55;;;;;;;28.53;23.03;;;17.40;66.00;;;;;;4992844;28;20426;-80
2022/03/24 08:50:21;;;;;;;28.40;25.40;;;18.50;66.10;;;;;;4996506;28;20177;-80
2022/03/24 08:52:48;;;;;;;28.17;23.53;;;17.80;64.70;;;;;;5001250;28;20211;-80
2022/03/24 08:55:14;;;;;;;26.83;24.10;;;17.70;65.50;;;;;;5017331;28;20411;-79
2022/03/24 08:57:41;;;;;;;25.47;22.87;;;17.80;66.40;;;;;;5014517;28;20411;-79
2022/03/24 09:00:12;;;;;;;27.50;22.90;;;18.60;67.80;;;;;;5012960;28;20439;-81
2022/03/24 09:02:53;;;;;;;26.10;21.93;;;18.60;64.30;;;;;;5014950;28;20503;-79
2022/03/24 09:05:18;;;;;;;27.87;23.70;;;18.40;64.90;;;;;;5011429;28;20415;-80
2022/03/24 09:07:45;;;;;;;27.00;24.10;;;19.00;63.90;;;;;;5012848;28;20422;-81
2022/03/24 09:10:12;;;;;;;31.23;25.23;;;19.40;62.70;;;;;;5010538;28;21508;-80
2022/03/24 09:12:40;;;;;;;29.60;24.40;;;18.50;63.90;;;;;;5012740;28;20485;-79
2022/03/24 09:15:08;;;;;;;34.97;26.20;;;19.40;63.70;;;;;;5012985;28;20419;-81
2022/03/24 09:17:34;;;;;;;38.37;25.90;;;19.70;61.60;;;;;;5008273;28;20417;-81
2022/03/24 09:20:00;;;;;;;40.13;26.70;;;19.40;60.80;;;;;;5008829;28;20424;-81
2022/03/24 09:22:26;;;;;;;33.00;25.80;;;19.00;62.80;;;;;;5005787;28;20519;-80
2022/03/24 09:24:51;;;;;;;29.57;24.97;;;19.30;62.10;;;;;;4981646;28;20189;-80
2022/03/24 09:27:17;;;;;;;33.33;27.00;;;19.60;60.70;;;;;;4993205;28;20188;-80
2022/03/24 09:29:43;;;;;;;31.70;25.77;;;19.40;60.30;;;;;;5007397;28;20235;-79
2022/03/24 09:32:12;;;;;;;32.63;26.70;;;19.60;62.50;;;;;;5007976;28;20277;-80
2022/03/24 09:34:39;;;;;;;31.57;26.87;;;19.90;58.70;;;;;;5007799;28;20173;-79
2022/03/24 09:37:04;;;;;;;30.17;26.87;;;19.70;57.00;;;;;;5004636;28;20446;-80
2022/03/24 09:39:29;;;;;;;31.33;26.10;;;19.60;58.70;;;;;;5006054;28;20432;-80
2022/03/24 09:41:55;;;;;;;32.53;26.30;;;19.20;57.20;;;;;;5010758;28;20372;-79
2022/03/24 09:44:22;;;;;;;30.13;24.97;;;19.60;58.70;;;;;;5005842;28;20184;-79
2022/03/24 09:46:47;;;;;;;28.63;24.17;;;19.40;58.10;;;;;;5013590;28;20930;-79
2022/03/24 09:49:14;;;;;;;29.03;24.40;;;19.50;58.60;;;;;;5031800;28;20404;-79
2022/03/24 09:51:40;;;;;;;40.03;26.43;;;19.20;59.40;;;;;;5012439;28;20201;-79
2022/03/24 09:54:07;;;;;;;30.47;23.80;;;19.50;59.90;;;;;;5018808;28;20407;-79
2022/03/24 09:56:33;;;;;;;29.30;25.63;;;19.10;59.90;;;;;;5015277;28;21832;-80
2022/03/24 09:58:59;;;;;;;30.40;24.50;;;18.50;59.60;;;;;;5007219;28;20408;-80
2022/03/24 10:01:25;;;;;;;32.87;24.43;;;19.60;60.80;;;;;;5000059;28;20443;-79
2022/03/24 10:04:07;;;;;;;34.27;26.40;;;19.70;58.50;;;;;;5009295;28;20259;-80
2022/03/24 10:06:34;;;;;;;30.50;24.47;;;19.90;59.40;;;;;;4998600;28;20177;-80
2022/03/24 10:08:59;;;;;;;31.33;25.20;;;19.90;59.00;;;;;;5021045;28;20420;-79
2022/03/24 10:11:26;;;;;;;37.33;25.23;;;19.30;57.50;;;;;;4997424;28;20463;-79
2022/03/24 10:13:54;;;;;;;32.83;25.30;;;17.80;59.20;;;;;;5015760;28;20177;-80
2022/03/24 10:16:37;;;;;;;31.20;23.97;;;18.50;61.50;;;;;;4995331;28;20523;-79
2022/03/24 10:19:13;;;;;;;32.00;24.77;;;18.90;60.90;;;;;;4987784;28;20420;-80
2022/03/24 10:21:45;;;;;;;37.00;24.13;;;18.60;60.70;;;;;;5011766;28;20434;-78
2022/03/24 10:24:20;;;;;;;34.07;24.40;;;19.10;61.00;;;;;;5015777;28;20423;-78
2022/03/24 10:26:55;;;;;;;36.77;26.40;;;20.00;61.70;;;;;;4995494;28;20423;-78
2022/03/24 10:29:22;;;;;;;35.00;26.63;;;18.90;58.00;;;;;;4995390;28;20428;-79
2022/03/24 10:31:57;;;;;;;35.50;25.43;;;18.70;61.40;;;;;;5006497;28;21002;-78
2022/03/24 10:34:34;;;;;;;26.73;23.70;;;19.10;59.60;;;;;;5017568;28;20444;-78
2022/03/24 10:37:17;;;;;;;32.23;25.87;;;19.30;61.50;;;;;;5031775;28;20775;-79
2022/03/24 10:40:10;;;;;;;34.03;23.73;;;19.30;63.60;;;;;;4999833;28;20770;-79
2022/03/24 10:42:38;;;;;;;33.60;25.13;;;18.50;61.80;;;;;;5002955;28;20789;-80
2022/03/24 10:45:14;;;;;;;33.23;24.23;;;17.90;60.40;;;;;;4999147;28;20544;-80
2022/03/24 10:47:49;;;;;;;29.97;25.23;;;18.40;58.30;;;;;;4998848;28;20459;-80
2022/03/24 10:50:40;;;;;;;33.50;25.83;;;17.80;59.00;;;;;;5003565;28;20515;-80
2022/03/24 10:53:11;;;;;;;34.10;25.90;;;17.90;62.90;;;;;;4998631;28;20454;-80
2022/03/24 10:56:00;;;;;;;32.70;24.90;;;18.50;63.90;;;;;;5016863;28;20414;-80
2022/03/24 10:58:28;;;;;;;42.40;24.90;;;18.10;61.10;;;;;;4997731;28;20416;-80
2022/03/24 11:00:58;;;;;;;31.00;25.40;;;18.00;60.40;;;;;;5012770;28;20455;-80
2022/03/24 11:03:24;;;;;;;29.90;24.80;;;;;;;;;;4992953;28;20507;-78
2022/03/24 11:05:50;;;;;;;37.67;27.17;;;18.60;67.00;;;;;;4991060;28;20428;-80
2022/03/24 11:08:17;;;;;;;30.50;24.30;;;19.00;58.70;;;;;;4994747;28;20183;-80
2022/03/24 11:10:49;;;;;;;30.10;25.27;;;19.00;62.40;;;;;;4998327;28;20731;-80
2022/03/24 11:13:27;;;;;;;32.37;23.87;;;18.90;61.50;;;;;;4998166;28;20428;-80
2022/03/24 11:15:53;;;;;;;29.37;22.40;;;18.70;62.00;;;;;;4997026;28;20419;-79
2022/03/24 11:18:22;;;;;;;32.47;22.47;;;18.90;64.00;;;;;;5015505;28;20419;-80
2022/03/24 11:41:43;;;;;;;38.83;24.20;;;19.30;65.60;;;;;;5559269;23;20483;-79
2022/03/24 11:44:18;;;;;;;31.40;24.50;;;19.60;66.50;;;;;;5013578;28;20768;-80
2022/03/24 11:46:55;;;;;;;26.70;21.00;;;19.60;59.00;;;;;;5013356;28;20438;-82
2022/03/24 11:49:25;;;;;;;28.17;21.30;;;19.20;57.60;;;;;;5013313;28;20404;-79
2022/03/24 11:52:11;;;;;;;26.47;20.60;;;19.10;59.10;;;;;;4996199;28;20467;-80
2022/03/24 11:54:39;;;;;;;32.20;21.43;;;19.20;58.60;;;;;;4979592;28;20478;-78
2022/03/24 11:57:25;;;;;;;27.17;20.43;;;19.20;62.60;;;;;;5013878;28;20812;-78
2022/03/24 12:00:13;;;;;;;23.70;19.87;;;19.40;60.00;;;;;;5013913;28;20423;-77
2022/03/24 12:02:49;;;;;;;35.43;20.27;;;19.60;61.20;;;;;;5013500;28;20431;-79
2022/03/24 12:05:15;;;;;;;31.03;21.73;;;20.00;60.50;;;;;;4996267;28;20422;-78
2022/03/24 12:07:41;;;;;;;26.47;20.87;;;19.50;57.30;;;;;;5013279;28;20439;-79
2022/03/24 12:10:13;;;;;;;22.27;19.73;;;19.50;60.70;;;;;;4996051;28;20975;-79
2022/03/24 12:12:59;;;;;;;27.10;21.33;;;19.40;57.20;;;;;;5013577;28;20189;-79
2022/03/24 12:15:24;;;;;;;26.87;21.80;;;18.90;57.90;;;;;;4995617;28;21016;-79
2022/03/24 12:18:07;;;;;;;26.40;22.27;;;18.60;57.10;;;;;;5012963;28;20487;-79
2022/03/24 12:20:44;;;;;;;25.57;20.40;;;18.30;55.80;;;;;;5013319;28;20207;-79
2022/03/24 12:23:10;;;;;;;27.90;20.80;;;18.30;56.40;;;;;;5013361;28;20435;-80
2022/03/24 12:25:37;;;;;;;35.53;21.33;;;17.90;58.70;;;;;;5013367;28;20474;-79
2022/03/24 12:28:12;;;;;;;27.97;21.47;;;17.60;57.10;;;;;;5012187;28;20301;-79
2022/03/24 12:30:45;;;;;;;28.63;23.00;;;17.40;57.10;;;;;;4976051;28;20502;-79
2022/03/24 12:33:13;;;;;;;29.27;23.30;;;17.50;58.80;;;;;;4995651;28;20425;-79
2022/03/24 12:35:51;;;;;;;27.10;22.80;;;17.60;56.90;;;;;;5012989;28;20515;-78
2022/03/24 12:38:33;;;;;;;30.23;22.23;;;18.10;60.10;;;;;;5012895;28;20404;-78
2022/03/24 12:41:15;;;;;;;30.37;23.20;;;17.90;58.30;;;;;;5012672;28;20815;-79
2022/03/24 12:43:56;;;;;;;31.83;23.17;;;18.20;60.40;;;;;;5013064;28;20904;-79
2022/03/24 12:46:29;;;;;;;27.00;22.60;;;18.70;60.40;;;;;;4995422;28;20427;-78
2022/03/24 12:49:12;;;;;;;29.10;21.30;;;18.70;57.90;;;;;;4994895;28;20416;-79
2022/03/24 12:52:08;;;;;;;31.00;23.00;;;18.50;58.90;;;;;;4995047;28;20468;-79
2022/03/24 12:54:48;;;;;;;28.30;22.63;;;18.40;59.10;;;;;;4988499;28;20416;-79
2022/03/24 12:57:23;;;;;;;33.03;23.93;;;18.10;57.10;;;;;;4995121;28;20482;-79
2022/03/24 12:59:48;;;;;;;29.43;21.50;;;18.00;63.80;;;;;;5012933;28;20443;-79
2022/03/24 13:02:14;;;;;;;28.10;22.33;;;18.20;62.60;;;;;;4995429;28;20447;-79
2022/03/24 13:04:40;;;;;;;32.53;23.77;;;18.00;60.90;;;;;;5012800;28;20184;-79
2022/03/24 13:07:07;;;;;;;27.37;22.20;;;17.80;59.50;;;;;;4995422;28;20204;-79
2022/03/24 13:09:32;;;;;;;28.20;22.93;;;18.40;58.90;;;;;;5012568;28;20427;-78
2022/03/24 13:12:02;;;;;;;33.30;24.33;;;18.90;60.90;;;;;;4995089;28;20463;-79
2022/03/24 13:14:30;;;;;;;28.00;23.83;;;19.10;62.10;;;;;;5013604;28;20149;-79
2022/03/24 13:17:05;;;;;;;28.70;23.50;;;19.00;57.70;;;;;;5012706;28;20420;-79
2022/03/24 13:19:32;;;;;;;28.40;23.67;;;19.10;61.10;;;;;;5012670;28;20400;-78
2022/03/24 13:22:20;;;;;;;32.30;22.03;;;19.40;58.60;;;;;;5012275;28;20506;-78
2022/03/24 13:24:56;;;;;;;30.43;22.50;;;18.80;59.00;;;;;;5012438;28;20397;-78
2022/03/24 13:27:22;;;;;;;31.23;23.07;;;18.30;57.60;;;;;;5012182;28;20927;-78
2022/03/24 13:29:48;;;;;;;39.67;22.83;;;17.80;59.90;;;;;;5011651;28;20416;-79
2022/03/24 13:32:16;;;;;;;36.40;24.40;;;18.10;61.70;;;;;;5011701;28;20550;-78
2022/03/24 13:34:52;;;;;;;34.70;23.47;;;18.10;62.70;;;;;;5005617;28;20185;-78
2022/03/24 13:37:19;;;;;;;31.60;23.73;;;18.50;62.00;;;;;;4992651;28;20849;-79
2022/03/24 13:39:47;;;;;;;30.30;21.73;;;18.80;60.40;;;;;;4994374;28;20409;-79
2022/03/24 13:42:13;;;;;;;29.53;23.57;;;18.70;60.80;;;;;;4996338;28;20476;-78
2022/03/24 13:44:39;;;;;;;33.93;22.53;;;18.00;59.00;;;;;;4996508;28;20416;-78
2022/03/24 13:47:06;;;;;;;30.37;23.07;;;17.60;58.80;;;;;;4996506;28;20408;-78
2022/03/24 13:49:31;;;;;;;30.33;21.87;;;17.70;60.50;;;;;;4996712;28;20173;-78
2022/03/24 13:51:58;;;;;;;32.70;22.90;;;17.90;61.50;;;;;;4980039;28;20474;-78
2022/03/24 13:54:23;;;;;;;31.43;22.63;;;18.10;62.30;;;;;;5016295;28;20248;-78
2022/03/24 13:56:49;;;;;;;32.00;23.57;;;18.10;60.20;;;;;;5016426;28;20834;-79
2022/03/24 13:59:15;;;;;;;30.50;21.30;;;17.60;58.90;;;;;;5016124;28;20706;-79
2022/03/24 14:01:40;;;;;;;31.50;22.20;;;18.20;63.10;;;;;;4992432;28;20244;-78
2022/03/24 14:04:17;;;;;;;32.17;22.80;;;18.80;60.60;;;;;;4990438;28;20213;-79
2022/03/24 14:07:02;;;;;;;26.13;20.57;;;18.80;60.20;;;;;;4992835;28;20181;-79
2022/03/24 14:09:29;;;;;;;29.47;22.60;;;18.10;59.80;;;;;;5016447;28;20861;-78
2022/03/24 14:12:08;;;;;;;48.37;22.47;;;17.80;60.80;;;;;;5015970;28;20795;-79
2022/03/24 14:14:33;;;;;;;32.60;22.87;;;17.50;59.90;;;;;;5016130;28;20457;-79
2022/03/24 14:16:59;;;;;;;33.60;23.20;;;17.20;60.20;;;;;;5016470;28;20408;-79
2022/03/24 14:19:27;;;;;;;28.67;22.27;;;17.60;61.80;;;;;;5016121;28;20648;-78
2022/03/24 14:21:56;;;;;;;26.83;21.00;;;17.40;59.00;;;;;;4999654;28;20965;-80
2022/03/24 14:24:45;;;;;;;27.97;23.20;;;17.50;61.50;;;;;;4999377;28;20418;-80
2022/03/24 14:27:47;;;;;;;30.90;22.10;;;17.50;59.70;;;;;;5016235;28;20406;-79
2022/03/24 14:30:13;;;;;;;26.87;21.97;;;17.10;59.50;;;;;;5015997;28;20937;-78
2022/03/24 14:32:43;;;;;;;27.40;22.10;;;17.10;63.10;;;;;;5007790;28;20464;-79
2022/03/24 14:35:20;;;;;;;30.50;23.23;;;17.20;61.00;;;;;;4997583;28;20177;-80
2022/03/24 14:37:49;;;;;;;29.33;22.73;;;17.00;61.30;;;;;;5015144;28;20412;-77
2022/03/24 14:40:38;;;;;;;30.40;22.07;;;17.30;64.60;;;;;;5014549;28;20920;-79
2022/03/24 14:43:06;;;;;;;31.93;22.57;;;17.70;62.40;;;;;;4996105;28;20441;-79
2022/03/24 14:45:34;;;;;;;27.33;21.80;;;17.10;62.20;;;;;;5000284;28;20428;-78
2022/03/24 14:48:01;;;;;;;27.53;22.37;;;16.70;62.60;;;;;;4995344;28;20409;-78
2022/03/24 14:50:28;;;;;;;30.53;22.33;;;16.60;61.90;;;;;;4994720;28;20431;-79
2022/03/24 14:52:53;;;;;;;29.20;21.17;;;16.90;62.20;;;;;;4995068;28;20510;-78
2022/03/24 14:55:19;;;;;;;42.73;22.13;;;17.00;64.50;;;;;;4977919;28;20413;-79
2022/03/24 14:57:46;;;;;;;33.70;22.53;;;16.90;63.70;;;;;;4977635;28;20261;-79
2022/03/24 15:00:15;;;;;;;31.33;23.73;;;16.60;63.30;;;;;;5008365;28;20637;-79
2022/03/24 15:02:41;;;;;;;31.83;22.50;;;16.30;63.90;;;;;;4997497;28;20463;-79
2022/03/24 15:05:07;;;;;;;28.37;20.93;;;16.30;62.00;;;;;;4997622;28;20423;-79
2022/03/24 15:07:33;;;;;;;24.90;20.30;;;16.60;63.90;;;;;;4997498;28;20795;-79
2022/03/24 15:10:01;;;;;;;29.20;20.40;;;16.50;64.20;;;;;;5015373;28;20423;-79
2022/03/24 15:12:27;;;;;;;29.97;21.20;;;16.30;63.80;;;;;;4998029;28;20459;-80
2022/03/24 15:17:37;;;;;;;30.17;20.30;;;16.20;64.50;;;;;;5016083;28;20411;-80
2022/03/24 15:20:02;;;;;;;29.90;19.90;;;16.20;65.40;;;;;;4998416;28;20432;-81
2022/03/24 15:22:31;;;;;;;27.40;20.00;;;16.10;65.40;;;;;;5014654;28;20280;-77
2022/03/24 15:24:57;;;;;;;25.80;20.20;;;16.00;65.50;;;;;;5012698;28;20231;-77
2022/03/24 15:27:22;;;;;;;26.40;20.10;;;15.90;66.10;;;;;;4993422;28;20419;-77
2022/03/24 15:29:48;;;;;;;29.93;21.63;;;16.00;63.40;;;;;;4989660;28;20557;-77
2022/03/24 15:32:13;;;;;;;28.40;21.83;;;16.00;65.80;;;;;;5013592;28;20284;-76
2022/03/24 15:34:40;;;;;;;28.17;21.70;;;15.70;66.70;;;;;;5009608;28;20529;-77
2022/03/24 15:37:05;;;;;;;28.93;21.33;;;15.40;67.50;;;;;;5021659;28;20223;-76
2022/03/24 15:39:31;;;;;;;33.07;20.90;;;15.30;67.90;;;;;;5013679;28;20830;-76
2022/03/24 15:41:57;;;;;;;26.37;21.10;;;15.30;67.40;;;;;;5014348;28;20754;-76
2022/03/24 15:44:22;;;;;;;28.70;21.30;;;15.20;67.40;;;;;;5016332;28;20189;-76
2022/03/24 15:46:49;;;;;;;24.93;20.50;;;15.30;67.20;;;;;;5011644;28;20180;-76
2022/03/24 15:49:15;;;;;;;29.60;21.83;;;15.20;68.60;;;;;;5003212;28;20188;-76
2022/03/24 15:51:42;;;;;;;26.63;21.17;;;14.90;67.60;;;;;;5015766;28;20466;-77
2022/03/24 15:54:08;;;;;;;26.63;21.07;;;14.60;69.40;;;;;;5013417;28;20412;-76
2022/03/24 15:56:37;;;;;;;31.90;20.67;;;14.60;70.50;;;;;;5013120;28;20942;-77
2022/03/24 15:59:06;;;;;;;29.40;21.50;;;14.60;69.70;;;;;;5011065;28;20420;-77
2022/03/24 16:01:32;;;;;;;31.50;21.10;;;14.50;69.10;;;;;;5018284;28;20422;-78
2022/03/24 16:03:57;;;;;;;34.23;20.03;;;14.30;69.60;;;;;;5019747;28;20759;-79
2022/03/24 16:06:23;;;;;;;27.83;20.70;;;14.20;71.40;;;;;;5017425;28;21897;-79
2022/03/24 16:08:49;;;;;;;33.33;19.53;;;14.00;71.60;;;;;;4994471;28;20248;-77
2022/03/24 16:11:15;;;;;;;27.90;20.57;;;13.80;71.80;;;;;;5015341;28;20199;-78
2022/03/24 16:13:40;;;;;;;26.73;20.23;;;13.50;72.10;;;;;;5000514;28;20412;-79
2022/03/24 16:16:06;;;;;;;33.07;21.23;;;13.30;72.40;;;;;;5004324;28;20239;-78
2022/03/24 16:18:31;;;;;;;44.93;20.97;;;13.20;71.20;;;;;;5017092;28;20200;-77
2022/03/24 16:20:57;;;;;;;33.90;22.00;;;13.10;73.00;;;;;;5012590;28;20197;-76
2022/03/24 16:23:23;;;;;;;33.33;21.07;;;13.00;72.80;;;;;;5016433;28;20712;-78
2022/03/24 16:25:48;;;;;;;35.43;20.10;;;12.90;74.40;;;;;;5016085;28;20169;-80
2022/03/24 16:28:14;;;;;;;30.17;21.90;;;12.80;74.80;;;;;;5022605;28;20191;-83
2022/03/24 16:30:40;;;;;;;40.83;21.07;;;12.70;74.40;;;;;;4999294;28;20218;-79
2022/03/24 16:33:06;;;;;;;26.53;19.07;;;12.50;74.70;;;;;;5012815;28;20192;-79
2022/03/24 16:35:32;;;;;;;30.43;20.97;;;12.30;75.90;;;;;;5012809;28;20168;-78
2022/03/24 16:37:57;;;;;;;28.27;20.80;;;12.20;74.70;;;;;;4995205;28;20420;-79
2022/03/24 16:40:23;;;;;;;27.67;21.30;;;12.00;77.30;;;;;;5012115;28;20185;-80
2022/03/24 16:42:49;;;;;;;30.30;21.33;;;11.80;78.00;;;;;;5020236;28;20193;-78
2022/03/24 16:45:15;;;;;;;35.10;21.90;;;11.70;75.90;;;;;;5003507;28;20462;-77
2022/03/24 16:47:41;;;;;;;38.70;22.83;;;11.50;77.40;;;;;;5001085;28;20172;-76
2022/03/24 16:50:12;;;;;;;39.30;20.83;;;11.30;77.80;;;;;;5020519;28;20180;-76
2022/03/24 16:52:39;;;;;;;27.03;20.27;;;11.20;78.00;;;;;;4996710;28;20451;-78
2022/03/24 16:55:05;;;;;;;33.23;22.20;;;11.10;78.30;;;;;;5011293;28;20435;-77
2022/03/24 16:57:31;;;;;;;28.93;19.97;;;10.80;80.80;;;;;;5015341;28;20430;-77
2022/03/24 16:59:57;;;;;;;25.27;20.20;;;10.60;81.00;;;;;;5017225;28;20896;-76
2022/03/24 17:02:23;;;;;;;26.73;20.27;;;10.30;81.60;;;;;;4994313;28;20443;-76
2022/03/24 17:04:48;;;;;;;34.57;21.07;;;10.10;81.90;;;;;;5016111;28;20490;-76
2022/03/24 17:07:14;;;;;;;32.30;21.63;;;9.70;83.00;;;;;;5015831;28;20412;-76
2022/03/24 17:09:39;;;;;;;27.10;19.37;;;9.50;84.20;;;;;;4999173;28;20169;-75
2022/03/24 17:12:05;;;;;;;30.33;20.50;;;9.40;85.00;;;;;;5020319;28;20216;-76
2022/03/24 17:14:31;;;;;;;28.30;20.80;;;9.20;84.80;;;;;;5000752;28;20551;-76
2022/03/24 17:16:56;;;;;;;29.50;20.87;;;9.10;84.60;;;;;;5001806;28;20181;-77